sensor_id;sensor_type;location;lat;lon;timestamp;temperature;humidity
8043;DHT22;4064;48.132;11.366;2023-12-20T00:00:24;5.40;95.50
8043;DHT22;4064;48.132;11.366;2023-12-20T00:02:50;5.50;95.80
8043;DHT22;4064;48.132;11.366;2023-12-20T00:05:15;5.40;95.70
8043;DHT22;4064;48.132;11.366;2023-12-20T00:07:41;5.40;95.90
8043;DHT22;4064;48.132;11.366;2023-12-20T00:10:07;5.40;95.90
8043;DHT22;4064;48.132;11.366;2023-12-20T00:12:33;5.40;95.80
8043;DHT22;4064;48.132;11.366;2023-12-20T00:14:58;5.50;96.00
8043;DHT22;4064;48.132;11.366;2023-12-20T00:17:24;5.50;96.10
8043;DHT22;4064;48.132;11.366;2023-12-20T00:19:49;5.50;96.10
8043;DHT22;4064;48.132;11.366;2023-12-20T00:22:15;5.50;96.50
8043;DHT22;4064;48.132;11.366;2023-12-20T00:24:41;5.50;96.30
8043;DHT22;4064;48.132;11.366;2023-12-20T00:27:06;5.50;95.70
8043;DHT22;4064;48.132;11.366;2023-12-20T00:29:32;5.60;95.40
8043;DHT22;4064;48.132;11.366;2023-12-20T00:31:57;5.60;95.20
8043;DHT22;4064;48.132;11.366;2023-12-20T00:34:23;5.70;95.00
8043;DHT22;4064;48.132;11.366;2023-12-20T00:36:48;5.70;95.00
8043;DHT22;4064;48.132;11.366;2023-12-20T00:39:14;5.70;95.10
8043;DHT22;4064;48.132;11.366;2023-12-20T00:41:39;5.70;94.70
8043;DHT22;4064;48.132;11.366;2023-12-20T00:44:05;5.80;94.50
8043;DHT22;4064;48.132;11.366;2023-12-20T00:46:30;5.90;94.20
8043;DHT22;4064;48.132;11.366;2023-12-20T00:48:56;5.90;94.10
8043;DHT22;4064;48.132;11.366;2023-12-20T00:51:22;5.90;94.10
8043;DHT22;4064;48.132;11.366;2023-12-20T00:53:50;5.90;94.20
8043;DHT22;4064;48.132;11.366;2023-12-20T00:56:15;5.90;94.30
8043;DHT22;4064;48.132;11.366;2023-12-20T00:58:41;5.90;94.10
8043;DHT22;4064;48.132;11.366;2023-12-20T01:01:06;5.90;94.50
8043;DHT22;4064;48.132;11.366;2023-12-20T01:03:32;6.00;94.10
8043;DHT22;4064;48.132;11.366;2023-12-20T01:05:57;6.00;94.20
8043;DHT22;4064;48.132;11.366;2023-12-20T01:08:23;6.00;94.60
8043;DHT22;4064;48.132;11.366;2023-12-20T01:10:49;5.90;95.00
8043;DHT22;4064;48.132;11.366;2023-12-20T01:13:14;5.90;94.70
8043;DHT22;4064;48.132;11.366;2023-12-20T01:15:40;5.90;94.80
8043;DHT22;4064;48.132;11.366;2023-12-20T01:18:06;5.90;94.90
8043;DHT22;4064;48.132;11.366;2023-12-20T01:20:31;5.90;94.90
8043;DHT22;4064;48.132;11.366;2023-12-20T01:22:57;5.90;95.00
8043;DHT22;4064;48.132;11.366;2023-12-20T01:25:22;5.90;95.00
8043;DHT22;4064;48.132;11.366;2023-12-20T01:27:48;6.00;95.30
8043;DHT22;4064;48.132;11.366;2023-12-20T01:30:14;6.00;95.20
8043;DHT22;4064;48.132;11.366;2023-12-20T01:32:40;5.90;95.40
8043;DHT22;4064;48.132;11.366;2023-12-20T01:35:06;5.90;95.70
8043;DHT22;4064;48.132;11.366;2023-12-20T01:37:31;5.90;95.70
8043;DHT22;4064;48.132;11.366;2023-12-20T01:39:57;5.90;95.60
8043;DHT22;4064;48.132;11.366;2023-12-20T01:42:24;6.00;95.40
8043;DHT22;4064;48.132;11.366;2023-12-20T01:44:49;6.00;95.40
8043;DHT22;4064;48.132;11.366;2023-12-20T01:47:15;5.90;95.70
8043;DHT22;4064;48.132;11.366;2023-12-20T01:49:41;6.00;95.60
8043;DHT22;4064;48.132;11.366;2023-12-20T01:52:07;6.00;95.60
8043;DHT22;4064;48.132;11.366;2023-12-20T01:54:34;6.00;95.50
8043;DHT22;4064;48.132;11.366;2023-12-20T01:57:01;6.00;95.60
8043;DHT22;4064;48.132;11.366;2023-12-20T01:59:26;6.00;95.40
8043;DHT22;4064;48.132;11.366;2023-12-20T02:01:54;6.00;95.50
8043;DHT22;4064;48.132;11.366;2023-12-20T02:04:20;6.10;95.40
8043;DHT22;4064;48.132;11.366;2023-12-20T02:06:46;6.10;95.50
8043;DHT22;4064;48.132;11.366;2023-12-20T02:09:12;6.10;95.60
8043;DHT22;4064;48.132;11.366;2023-12-20T02:11:38;6.10;95.80
8043;DHT22;4064;48.132;11.366;2023-12-20T02:14:04;6.20;95.50
8043;DHT22;4064;48.132;11.366;2023-12-20T02:16:30;6.20;95.70
8043;DHT22;4064;48.132;11.366;2023-12-20T02:18:55;6.20;95.90
8043;DHT22;4064;48.132;11.366;2023-12-20T02:21:34;6.30;96.30
8043;DHT22;4064;48.132;11.366;2023-12-20T02:24:00;6.30;97.00
8043;DHT22;4064;48.132;11.366;2023-12-20T02:26:26;6.30;96.90
8043;DHT22;4064;48.132;11.366;2023-12-20T02:28:52;6.40;97.60
8043;DHT22;4064;48.132;11.366;2023-12-20T02:31:21;6.40;97.70
8043;DHT22;4064;48.132;11.366;2023-12-20T02:33:47;6.50;97.80
8043;DHT22;4064;48.132;11.366;2023-12-20T02:36:13;6.50;98.10
8043;DHT22;4064;48.132;11.366;2023-12-20T02:38:38;6.40;98.10
8043;DHT22;4064;48.132;11.366;2023-12-20T02:41:04;6.50;98.40
8043;DHT22;4064;48.132;11.366;2023-12-20T02:43:30;6.40;98.50
8043;DHT22;4064;48.132;11.366;2023-12-20T02:45:55;6.40;98.60
8043;DHT22;4064;48.132;11.366;2023-12-20T02:48:21;6.50;98.60
8043;DHT22;4064;48.132;11.366;2023-12-20T02:50:47;6.50;98.60
8043;DHT22;4064;48.132;11.366;2023-12-20T02:53:14;6.40;98.70
8043;DHT22;4064;48.132;11.366;2023-12-20T02:55:40;6.50;98.90
8043;DHT22;4064;48.132;11.366;2023-12-20T02:58:05;6.40;98.90
8043;DHT22;4064;48.132;11.366;2023-12-20T03:00:31;6.40;99.20
8043;DHT22;4064;48.132;11.366;2023-12-20T03:02:56;6.40;99.70
8043;DHT22;4064;48.132;11.366;2023-12-20T03:05:22;6.50;99.90
8043;DHT22;4064;48.132;11.366;2023-12-20T03:07:47;6.50;99.90
8043;DHT22;4064;48.132;11.366;2023-12-20T03:10:13;6.40;99.90
8043;DHT22;4064;48.132;11.366;2023-12-20T03:12:39;6.50;99.90
8043;DHT22;4064;48.132;11.366;2023-12-20T03:15:04;6.50;99.90
8043;DHT22;4064;48.132;11.366;2023-12-20T03:17:30;6.50;99.90
8043;DHT22;4064;48.132;11.366;2023-12-20T03:19:56;6.50;99.90
8043;DHT22;4064;48.132;11.366;2023-12-20T03:22:22;6.50;99.90
8043;DHT22;4064;48.132;11.366;2023-12-20T03:24:47;6.50;99.90
8043;DHT22;4064;48.132;11.366;2023-12-20T03:27:13;6.50;99.90
8043;DHT22;4064;48.132;11.366;2023-12-20T03:29:38;6.50;99.90
8043;DHT22;4064;48.132;11.366;2023-12-20T03:32:04;6.50;99.90
8043;DHT22;4064;48.132;11.366;2023-12-20T03:34:30;6.40;99.90
8043;DHT22;4064;48.132;11.366;2023-12-20T03:36:55;6.40;99.90
8043;DHT22;4064;48.132;11.366;2023-12-20T03:39:21;6.40;99.90
8043;DHT22;4064;48.132;11.366;2023-12-20T03:41:46;6.40;99.90
8043;DHT22;4064;48.132;11.366;2023-12-20T03:44:12;6.30;99.90
8043;DHT22;4064;48.132;11.366;2023-12-20T03:46:38;6.30;99.90
8043;DHT22;4064;48.132;11.366;2023-12-20T03:49:03;6.30;99.90
8043;DHT22;4064;48.132;11.366;2023-12-20T03:51:29;6.30;99.90
8043;DHT22;4064;48.132;11.366;2023-12-20T03:53:54;6.20;99.90
8043;DHT22;4064;48.132;11.366;2023-12-20T03:56:20;6.20;99.90
8043;DHT22;4064;48.132;11.366;2023-12-20T03:58:45;6.10;99.90
8043;DHT22;4064;48.132;11.366;2023-12-20T04:01:11;6.10;99.90
8043;DHT22;4064;48.132;11.366;2023-12-20T04:03:39;6.10;99.90
8043;DHT22;4064;48.132;11.366;2023-12-20T04:06:06;6.00;99.90
8043;DHT22;4064;48.132;11.366;2023-12-20T04:08:31;6.00;99.90
8043;DHT22;4064;48.132;11.366;2023-12-20T04:10:57;5.90;99.90
8043;DHT22;4064;48.132;11.366;2023-12-20T04:13:22;5.90;99.90
8043;DHT22;4064;48.132;11.366;2023-12-20T04:15:48;5.80;99.90
8043;DHT22;4064;48.132;11.366;2023-12-20T04:18:15;5.80;99.90
8043;DHT22;4064;48.132;11.366;2023-12-20T04:20:41;5.70;99.90
8043;DHT22;4064;48.132;11.366;2023-12-20T04:23:06;5.70;99.90
8043;DHT22;4064;48.132;11.366;2023-12-20T04:25:32;5.70;99.90
8043;DHT22;4064;48.132;11.366;2023-12-20T04:27:57;5.60;99.90
8043;DHT22;4064;48.132;11.366;2023-12-20T04:30:23;5.70;99.90
8043;DHT22;4064;48.132;11.366;2023-12-20T04:32:49;5.70;99.90
8043;DHT22;4064;48.132;11.366;2023-12-20T04:35:14;5.70;99.90
8043;DHT22;4064;48.132;11.366;2023-12-20T04:37:40;5.70;99.90
8043;DHT22;4064;48.132;11.366;2023-12-20T04:40:06;5.60;99.90
8043;DHT22;4064;48.132;11.366;2023-12-20T04:42:33;5.60;99.90
8043;DHT22;4064;48.132;11.366;2023-12-20T04:44:59;5.60;99.90
8043;DHT22;4064;48.132;11.366;2023-12-20T04:47:24;5.60;99.90
8043;DHT22;4064;48.132;11.366;2023-12-20T04:49:50;5.60;99.90
8043;DHT22;4064;48.132;11.366;2023-12-20T04:52:15;5.50;99.90
8043;DHT22;4064;48.132;11.366;2023-12-20T04:54:41;5.50;99.90
8043;DHT22;4064;48.132;11.366;2023-12-20T04:57:06;5.40;99.90
8043;DHT22;4064;48.132;11.366;2023-12-20T04:59:32;5.40;99.90
8043;DHT22;4064;48.132;11.366;2023-12-20T05:01:58;5.30;99.90
8043;DHT22;4064;48.132;11.366;2023-12-20T05:04:23;5.30;99.90
8043;DHT22;4064;48.132;11.366;2023-12-20T05:06:49;5.20;99.90
8043;DHT22;4064;48.132;11.366;2023-12-20T05:09:15;5.20;99.90
8043;DHT22;4064;48.132;11.366;2023-12-20T05:11:41;5.10;99.90
8043;DHT22;4064;48.132;11.366;2023-12-20T05:14:07;5.00;99.90
8043;DHT22;4064;48.132;11.366;2023-12-20T05:16:32;5.00;99.90
8043;DHT22;4064;48.132;11.366;2023-12-20T05:18:58;4.90;99.90
8043;DHT22;4064;48.132;11.366;2023-12-20T05:21:26;4.90;99.90
8043;DHT22;4064;48.132;11.366;2023-12-20T05:23:53;4.90;99.90
8043;DHT22;4064;48.132;11.366;2023-12-20T05:26:19;4.90;99.90
8043;DHT22;4064;48.132;11.366;2023-12-20T05:28:45;4.80;99.90
8043;DHT22;4064;48.132;11.366;2023-12-20T05:31:10;4.80;99.90
8043;DHT22;4064;48.132;11.366;2023-12-20T05:33:52;4.80;99.90
8043;DHT22;4064;48.132;11.366;2023-12-20T05:36:23;4.70;99.90
8043;DHT22;4064;48.132;11.366;2023-12-20T05:38:48;4.70;99.90
8043;DHT22;4064;48.132;11.366;2023-12-20T05:41:14;4.70;99.90
8043;DHT22;4064;48.132;11.366;2023-12-20T05:43:40;4.70;99.90
8043;DHT22;4064;48.132;11.366;2023-12-20T05:46:05;4.60;99.90
8043;DHT22;4064;48.132;11.366;2023-12-20T05:48:31;4.50;99.90
8043;DHT22;4064;48.132;11.366;2023-12-20T05:50:57;4.50;99.90
8043;DHT22;4064;48.132;11.366;2023-12-20T05:53:23;4.50;99.90
8043;DHT22;4064;48.132;11.366;2023-12-20T05:55:49;4.50;99.90
8043;DHT22;4064;48.132;11.366;2023-12-20T05:58:14;4.50;99.90
8043;DHT22;4064;48.132;11.366;2023-12-20T06:00:40;4.50;99.90
8043;DHT22;4064;48.132;11.366;2023-12-20T06:03:05;4.40;99.90
8043;DHT22;4064;48.132;11.366;2023-12-20T06:05:31;4.50;99.90
8043;DHT22;4064;48.132;11.366;2023-12-20T06:07:57;4.40;99.90
8043;DHT22;4064;48.132;11.366;2023-12-20T06:10:27;4.40;99.90
8043;DHT22;4064;48.132;11.366;2023-12-20T06:12:52;4.40;99.90
8043;DHT22;4064;48.132;11.366;2023-12-20T06:15:18;4.40;99.90
8043;DHT22;4064;48.132;11.366;2023-12-20T06:17:44;4.30;99.90
8043;DHT22;4064;48.132;11.366;2023-12-20T06:20:10;4.30;99.90
8043;DHT22;4064;48.132;11.366;2023-12-20T06:22:36;4.30;99.90
8043;DHT22;4064;48.132;11.366;2023-12-20T06:25:02;4.20;99.90
8043;DHT22;4064;48.132;11.366;2023-12-20T06:27:28;4.20;99.90
8043;DHT22;4064;48.132;11.366;2023-12-20T06:29:54;4.20;99.90
8043;DHT22;4064;48.132;11.366;2023-12-20T06:32:20;4.10;99.90
8043;DHT22;4064;48.132;11.366;2023-12-20T06:34:46;4.10;99.90
8043;DHT22;4064;48.132;11.366;2023-12-20T06:37:11;4.10;99.90
8043;DHT22;4064;48.132;11.366;2023-12-20T06:39:37;4.10;99.90
8043;DHT22;4064;48.132;11.366;2023-12-20T06:42:03;4.10;99.90
8043;DHT22;4064;48.132;11.366;2023-12-20T06:44:28;4.00;99.90
8043;DHT22;4064;48.132;11.366;2023-12-20T06:46:54;4.10;99.90
8043;DHT22;4064;48.132;11.366;2023-12-20T06:49:20;4.00;99.90
8043;DHT22;4064;48.132;11.366;2023-12-20T06:51:46;4.00;99.90
8043;DHT22;4064;48.132;11.366;2023-12-20T06:54:11;4.00;99.90
8043;DHT22;4064;48.132;11.366;2023-12-20T06:56:37;3.90;99.90
8043;DHT22;4064;48.132;11.366;2023-12-20T06:59:02;3.90;99.90
8043;DHT22;4064;48.132;11.366;2023-12-20T07:01:28;3.90;99.90
8043;DHT22;4064;48.132;11.366;2023-12-20T07:03:54;3.90;99.90
8043;DHT22;4064;48.132;11.366;2023-12-20T07:06:19;3.90;99.90
8043;DHT22;4064;48.132;11.366;2023-12-20T07:08:46;3.90;99.90
8043;DHT22;4064;48.132;11.366;2023-12-20T07:11:12;3.90;99.90
8043;DHT22;4064;48.132;11.366;2023-12-20T07:13:38;3.90;99.90
8043;DHT22;4064;48.132;11.366;2023-12-20T07:16:05;3.80;99.90
8043;DHT22;4064;48.132;11.366;2023-12-20T07:18:30;3.90;99.90
8043;DHT22;4064;48.132;11.366;2023-12-20T07:20:56;3.90;99.90
8043;DHT22;4064;48.132;11.366;2023-12-20T07:23:22;3.90;99.90
8043;DHT22;4064;48.132;11.366;2023-12-20T07:25:47;3.80;99.90
8043;DHT22;4064;48.132;11.366;2023-12-20T07:28:13;3.90;99.90
8043;DHT22;4064;48.132;11.366;2023-12-20T07:30:39;3.90;99.90
8043;DHT22;4064;48.132;11.366;2023-12-20T07:33:05;3.90;99.90
8043;DHT22;4064;48.132;11.366;2023-12-20T07:35:33;3.90;99.90
8043;DHT22;4064;48.132;11.366;2023-12-20T07:37:59;3.90;99.90
8043;DHT22;4064;48.132;11.366;2023-12-20T07:40:24;3.90;99.90
8043;DHT22;4064;48.132;11.366;2023-12-20T07:42:50;3.90;99.90
8043;DHT22;4064;48.132;11.366;2023-12-20T07:45:15;3.90;99.90
8043;DHT22;4064;48.132;11.366;2023-12-20T07:47:41;3.80;99.90
8043;DHT22;4064;48.132;11.366;2023-12-20T07:50:07;3.90;99.90
8043;DHT22;4064;48.132;11.366;2023-12-20T07:52:33;3.90;99.90
8043;DHT22;4064;48.132;11.366;2023-12-20T07:54:58;3.90;99.90
8043;DHT22;4064;48.132;11.366;2023-12-20T07:57:24;3.80;99.90
8043;DHT22;4064;48.132;11.366;2023-12-20T07:59:50;3.90;99.90
8043;DHT22;4064;48.132;11.366;2023-12-20T08:02:16;3.90;99.90
8043;DHT22;4064;48.132;11.366;2023-12-20T08:04:41;3.90;99.90
8043;DHT22;4064;48.132;11.366;2023-12-20T08:07:07;3.80;99.90
8043;DHT22;4064;48.132;11.366;2023-12-20T08:09:33;3.90;99.90
8043;DHT22;4064;48.132;11.366;2023-12-20T08:12:02;3.90;99.90
8043;DHT22;4064;48.132;11.366;2023-12-20T08:14:28;3.90;99.90
8043;DHT22;4064;48.132;11.366;2023-12-20T08:16:53;3.80;99.90
8043;DHT22;4064;48.132;11.366;2023-12-20T08:19:19;3.80;99.90
8043;DHT22;4064;48.132;11.366;2023-12-20T08:21:45;3.80;99.90
8043;DHT22;4064;48.132;11.366;2023-12-20T08:24:10;3.80;99.90
8043;DHT22;4064;48.132;11.366;2023-12-20T08:26:36;3.80;99.90
8043;DHT22;4064;48.132;11.366;2023-12-20T08:29:02;3.80;99.90
8043;DHT22;4064;48.132;11.366;2023-12-20T08:31:27;3.80;99.90
8043;DHT22;4064;48.132;11.366;2023-12-20T08:33:53;3.90;99.90
8043;DHT22;4064;48.132;11.366;2023-12-20T08:36:19;3.90;99.90
8043;DHT22;4064;48.132;11.366;2023-12-20T08:38:47;3.90;99.90
8043;DHT22;4064;48.132;11.366;2023-12-20T08:41:13;3.90;99.90
8043;DHT22;4064;48.132;11.366;2023-12-20T08:43:39;3.90;99.90
8043;DHT22;4064;48.132;11.366;2023-12-20T08:46:06;3.90;99.90
8043;DHT22;4064;48.132;11.366;2023-12-20T08:48:31;3.90;99.90
8043;DHT22;4064;48.132;11.366;2023-12-20T08:50:57;3.90;99.90
8043;DHT22;4064;48.132;11.366;2023-12-20T08:53:23;4.00;99.90
8043;DHT22;4064;48.132;11.366;2023-12-20T08:55:48;4.00;99.90
8043;DHT22;4064;48.132;11.366;2023-12-20T08:58:14;4.00;99.90
8043;DHT22;4064;48.132;11.366;2023-12-20T09:00:40;4.00;99.90
8043;DHT22;4064;48.132;11.366;2023-12-20T09:03:06;4.00;99.90
8043;DHT22;4064;48.132;11.366;2023-12-20T09:05:31;4.10;99.90
8043;DHT22;4064;48.132;11.366;2023-12-20T09:07:57;4.10;99.90
8043;DHT22;4064;48.132;11.366;2023-12-20T09:10:23;4.10;99.90
8043;DHT22;4064;48.132;11.366;2023-12-20T09:12:50;4.10;99.90
8043;DHT22;4064;48.132;11.366;2023-12-20T09:15:16;4.20;99.90
8043;DHT22;4064;48.132;11.366;2023-12-20T09:17:42;4.20;99.90
8043;DHT22;4064;48.132;11.366;2023-12-20T09:20:09;4.20;99.90
8043;DHT22;4064;48.132;11.366;2023-12-20T09:22:35;4.10;99.90
8043;DHT22;4064;48.132;11.366;2023-12-20T09:25:01;4.20;99.90
8043;DHT22;4064;48.132;11.366;2023-12-20T09:27:27;4.20;99.90
8043;DHT22;4064;48.132;11.366;2023-12-20T09:29:53;4.20;99.90
8043;DHT22;4064;48.132;11.366;2023-12-20T09:32:19;4.20;99.90
8043;DHT22;4064;48.132;11.366;2023-12-20T09:34:47;4.20;99.90
8043;DHT22;4064;48.132;11.366;2023-12-20T09:37:13;4.20;99.90
8043;DHT22;4064;48.132;11.366;2023-12-20T09:39:39;4.20;99.90
8043;DHT22;4064;48.132;11.366;2023-12-20T09:42:05;4.20;99.90
8043;DHT22;4064;48.132;11.366;2023-12-20T09:44:32;4.20;99.90
8043;DHT22;4064;48.132;11.366;2023-12-20T09:47:02;4.20;99.90
8043;DHT22;4064;48.132;11.366;2023-12-20T09:49:28;4.20;99.90
8043;DHT22;4064;48.132;11.366;2023-12-20T09:51:55;4.20;99.90
8043;DHT22;4064;48.132;11.366;2023-12-20T09:54:22;4.20;99.90
8043;DHT22;4064;48.132;11.366;2023-12-20T09:56:48;4.30;99.90
8043;DHT22;4064;48.132;11.366;2023-12-20T09:59:14;4.30;99.90
8043;DHT22;4064;48.132;11.366;2023-12-20T10:01:41;4.40;99.90
8043;DHT22;4064;48.132;11.366;2023-12-20T10:04:08;4.40;99.90
8043;DHT22;4064;48.132;11.366;2023-12-20T10:06:36;4.50;99.90
8043;DHT22;4064;48.132;11.366;2023-12-20T10:09:02;4.50;99.90
8043;DHT22;4064;48.132;11.366;2023-12-20T10:11:28;4.60;99.90
8043;DHT22;4064;48.132;11.366;2023-12-20T10:13:59;4.60;99.90
8043;DHT22;4064;48.132;11.366;2023-12-20T10:16:26;4.70;99.90
8043;DHT22;4064;48.132;11.366;2023-12-20T10:18:53;4.70;99.90
8043;DHT22;4064;48.132;11.366;2023-12-20T10:21:19;4.80;99.90
8043;DHT22;4064;48.132;11.366;2023-12-20T10:23:45;4.80;99.90
8043;DHT22;4064;48.132;11.366;2023-12-20T10:26:19;4.80;99.90
8043;DHT22;4064;48.132;11.366;2023-12-20T10:28:46;4.70;99.90
8043;DHT22;4064;48.132;11.366;2023-12-20T10:31:35;4.70;99.90
8043;DHT22;4064;48.132;11.366;2023-12-20T10:34:02;4.70;99.90
8043;DHT22;4064;48.132;11.366;2023-12-20T10:36:32;4.70;99.90
8043;DHT22;4064;48.132;11.366;2023-12-20T10:38:59;4.70;99.90
8043;DHT22;4064;48.132;11.366;2023-12-20T10:41:29;4.70;99.90
8043;DHT22;4064;48.132;11.366;2023-12-20T10:44:00;4.70;99.90
8043;DHT22;4064;48.132;11.366;2023-12-20T10:46:27;4.60;99.90
8043;DHT22;4064;48.132;11.366;2023-12-20T10:48:56;4.60;99.90
8043;DHT22;4064;48.132;11.366;2023-12-20T10:51:23;4.60;99.90
8043;DHT22;4064;48.132;11.366;2023-12-20T10:53:52;4.60;99.90
8043;DHT22;4064;48.132;11.366;2023-12-20T10:56:19;4.60;99.90
8043;DHT22;4064;48.132;11.366;2023-12-20T10:58:46;4.60;99.90
8043;DHT22;4064;48.132;11.366;2023-12-20T11:01:13;4.60;99.90
8043;DHT22;4064;48.132;11.366;2023-12-20T11:03:44;4.70;99.90
8043;DHT22;4064;48.132;11.366;2023-12-20T11:09:01;4.70;99.90
8043;DHT22;4064;48.132;11.366;2023-12-20T11:14:07;4.70;99.90
8043;DHT22;4064;48.132;11.366;2023-12-20T11:16:37;4.70;99.90
8043;DHT22;4064;48.132;11.366;2023-12-20T11:19:06;4.80;99.90
8043;DHT22;4064;48.132;11.366;2023-12-20T11:21:32;4.90;99.90
8043;DHT22;4064;48.132;11.366;2023-12-20T11:23:59;4.90;99.90
8043;DHT22;4064;48.132;11.366;2023-12-20T11:26:29;4.90;99.90
8043;DHT22;4064;48.132;11.366;2023-12-20T11:29:30;5.00;99.90
8043;DHT22;4064;48.132;11.366;2023-12-20T11:32:01;5.00;99.90
8043;DHT22;4064;48.132;11.366;2023-12-20T11:34:29;5.00;99.90
8043;DHT22;4064;48.132;11.366;2023-12-20T11:37:00;5.10;99.90
8043;DHT22;4064;48.132;11.366;2023-12-20T11:39:28;5.10;99.90
8043;DHT22;4064;48.132;11.366;2023-12-20T11:41:55;5.10;99.90
8043;DHT22;4064;48.132;11.366;2023-12-20T11:44:22;5.20;99.90
8043;DHT22;4064;48.132;11.366;2023-12-20T11:46:48;5.20;99.90
8043;DHT22;4064;48.132;11.366;2023-12-20T11:49:14;5.20;99.90
8043;DHT22;4064;48.132;11.366;2023-12-20T11:51:44;5.30;99.90
8043;DHT22;4064;48.132;11.366;2023-12-20T11:54:09;5.30;99.90
8043;DHT22;4064;48.132;11.366;2023-12-20T11:56:37;5.30;99.90
8043;DHT22;4064;48.132;11.366;2023-12-20T11:59:03;5.30;99.90
8043;DHT22;4064;48.132;11.366;2023-12-20T12:01:28;5.30;99.90
8043;DHT22;4064;48.132;11.366;2023-12-20T12:04:06;5.30;99.90
8043;DHT22;4064;48.132;11.366;2023-12-20T12:06:32;5.40;99.90
8043;DHT22;4064;48.132;11.366;2023-12-20T12:08:58;5.40;99.90
8043;DHT22;4064;48.132;11.366;2023-12-20T12:11:24;5.40;99.90
8043;DHT22;4064;48.132;11.366;2023-12-20T12:13:50;5.40;99.90
8043;DHT22;4064;48.132;11.366;2023-12-20T12:16:20;5.30;99.90
8043;DHT22;4064;48.132;11.366;2023-12-20T12:18:46;5.30;99.90
8043;DHT22;4064;48.132;11.366;2023-12-20T12:21:20;5.20;99.90
8043;DHT22;4064;48.132;11.366;2023-12-20T12:23:48;5.20;99.90
8043;DHT22;4064;48.132;11.366;2023-12-20T12:26:14;5.20;99.90
8043;DHT22;4064;48.132;11.366;2023-12-20T12:28:40;5.20;99.90
8043;DHT22;4064;48.132;11.366;2023-12-20T12:31:07;5.20;99.90
8043;DHT22;4064;48.132;11.366;2023-12-20T12:33:33;5.20;99.90
8043;DHT22;4064;48.132;11.366;2023-12-20T12:36:00;5.10;99.90
8043;DHT22;4064;48.132;11.366;2023-12-20T12:38:26;5.10;99.90
8043;DHT22;4064;48.132;11.366;2023-12-20T12:40:54;5.10;99.90
8043;DHT22;4064;48.132;11.366;2023-12-20T12:43:19;5.10;99.90
8043;DHT22;4064;48.132;11.366;2023-12-20T12:45:45;5.10;99.90
8043;DHT22;4064;48.132;11.366;2023-12-20T12:48:11;5.10;99.90
8043;DHT22;4064;48.132;11.366;2023-12-20T12:50:37;5.20;99.90
8043;DHT22;4064;48.132;11.366;2023-12-20T12:53:02;5.20;99.90
8043;DHT22;4064;48.132;11.366;2023-12-20T12:55:28;5.20;99.90
8043;DHT22;4064;48.132;11.366;2023-12-20T12:57:54;5.20;99.90
8043;DHT22;4064;48.132;11.366;2023-12-20T13:00:20;5.20;99.90
8043;DHT22;4064;48.132;11.366;2023-12-20T13:02:47;5.10;99.90
8043;DHT22;4064;48.132;11.366;2023-12-20T13:05:12;4.90;99.90
8043;DHT22;4064;48.132;11.366;2023-12-20T13:07:38;4.70;99.90
8043;DHT22;4064;48.132;11.366;2023-12-20T13:10:05;4.50;99.90
8043;DHT22;4064;48.132;11.366;2023-12-20T13:12:31;4.40;99.90
8043;DHT22;4064;48.132;11.366;2023-12-20T13:14:57;4.30;99.90
8043;DHT22;4064;48.132;11.366;2023-12-20T13:17:23;4.20;99.90
8043;DHT22;4064;48.132;11.366;2023-12-20T13:19:49;4.20;99.90
8043;DHT22;4064;48.132;11.366;2023-12-20T13:22:15;4.20;99.90
8043;DHT22;4064;48.132;11.366;2023-12-20T13:24:41;4.10;99.90
8043;DHT22;4064;48.132;11.366;2023-12-20T13:27:10;4.00;99.90
8043;DHT22;4064;48.132;11.366;2023-12-20T13:29:35;4.00;99.90
8043;DHT22;4064;48.132;11.366;2023-12-20T13:32:01;4.00;99.90
8043;DHT22;4064;48.132;11.366;2023-12-20T13:34:29;4.00;99.90
8043;DHT22;4064;48.132;11.366;2023-12-20T13:36:54;4.00;99.90
8043;DHT22;4064;48.132;11.366;2023-12-20T13:39:20;4.00;99.90
8043;DHT22;4064;48.132;11.366;2023-12-20T13:41:46;4.00;99.90
8043;DHT22;4064;48.132;11.366;2023-12-20T13:44:13;4.10;99.90
8043;DHT22;4064;48.132;11.366;2023-12-20T13:46:39;4.10;99.90
8043;DHT22;4064;48.132;11.366;2023-12-20T13:49:05;4.10;99.90
8043;DHT22;4064;48.132;11.366;2023-12-20T13:51:31;4.10;99.90
8043;DHT22;4064;48.132;11.366;2023-12-20T13:53:56;4.00;99.90
8043;DHT22;4064;48.132;11.366;2023-12-20T13:56:22;4.10;99.90
8043;DHT22;4064;48.132;11.366;2023-12-20T13:58:49;4.10;99.90
8043;DHT22;4064;48.132;11.366;2023-12-20T14:01:16;4.10;99.90
8043;DHT22;4064;48.132;11.366;2023-12-20T14:03:41;4.10;99.90
8043;DHT22;4064;48.132;11.366;2023-12-20T14:06:07;4.20;99.90
8043;DHT22;4064;48.132;11.366;2023-12-20T14:08:33;4.10;99.90
8043;DHT22;4064;48.132;11.366;2023-12-20T14:10:59;4.10;99.90
8043;DHT22;4064;48.132;11.366;2023-12-20T14:13:26;4.10;99.90
8043;DHT22;4064;48.132;11.366;2023-12-20T14:15:52;4.10;99.90
8043;DHT22;4064;48.132;11.366;2023-12-20T14:18:19;4.10;99.90
8043;DHT22;4064;48.132;11.366;2023-12-20T14:20:45;4.10;99.90
8043;DHT22;4064;48.132;11.366;2023-12-20T14:23:12;4.10;99.90
8043;DHT22;4064;48.132;11.366;2023-12-20T14:25:41;4.10;99.90
8043;DHT22;4064;48.132;11.366;2023-12-20T14:28:06;4.10;99.90
8043;DHT22;4064;48.132;11.366;2023-12-20T14:30:32;4.20;99.90
8043;DHT22;4064;48.132;11.366;2023-12-20T14:32:58;4.20;99.90
8043;DHT22;4064;48.132;11.366;2023-12-20T14:35:23;4.10;99.90
8043;DHT22;4064;48.132;11.366;2023-12-20T14:37:49;4.20;99.90
8043;DHT22;4064;48.132;11.366;2023-12-20T14:40:16;4.20;99.90
8043;DHT22;4064;48.132;11.366;2023-12-20T14:42:45;4.20;99.90
8043;DHT22;4064;48.132;11.366;2023-12-20T14:45:11;4.20;99.90
8043;DHT22;4064;48.132;11.366;2023-12-20T14:47:38;4.20;99.90
8043;DHT22;4064;48.132;11.366;2023-12-20T14:50:05;4.20;99.90
8043;DHT22;4064;48.132;11.366;2023-12-20T14:52:33;4.10;99.90
8043;DHT22;4064;48.132;11.366;2023-12-20T14:55:02;4.10;99.90
8043;DHT22;4064;48.132;11.366;2023-12-20T14:57:28;4.10;99.90
8043;DHT22;4064;48.132;11.366;2023-12-20T14:59:55;4.10;99.90
8043;DHT22;4064;48.132;11.366;2023-12-20T15:02:21;4.10;99.90
8043;DHT22;4064;48.132;11.366;2023-12-20T15:04:46;4.10;99.90
8043;DHT22;4064;48.132;11.366;2023-12-20T15:07:12;4.00;99.90
8043;DHT22;4064;48.132;11.366;2023-12-20T15:09:38;4.00;99.90
8043;DHT22;4064;48.132;11.366;2023-12-20T15:12:04;4.00;99.90
8043;DHT22;4064;48.132;11.366;2023-12-20T15:14:30;4.00;99.90
8043;DHT22;4064;48.132;11.366;2023-12-20T15:16:56;4.00;99.90
8043;DHT22;4064;48.132;11.366;2023-12-20T15:19:22;4.00;99.90
8043;DHT22;4064;48.132;11.366;2023-12-20T15:21:48;4.00;99.90
8043;DHT22;4064;48.132;11.366;2023-12-20T15:24:14;4.00;99.90
8043;DHT22;4064;48.132;11.366;2023-12-20T15:26:45;3.90;99.90
8043;DHT22;4064;48.132;11.366;2023-12-20T15:29:12;3.90;99.90
8043;DHT22;4064;48.132;11.366;2023-12-20T15:31:46;3.90;99.90
8043;DHT22;4064;48.132;11.366;2023-12-20T15:34:12;3.90;99.90
8043;DHT22;4064;48.132;11.366;2023-12-20T15:36:39;3.90;99.90
8043;DHT22;4064;48.132;11.366;2023-12-20T15:39:05;3.80;99.90
8043;DHT22;4064;48.132;11.366;2023-12-20T15:41:34;3.80;99.90
8043;DHT22;4064;48.132;11.366;2023-12-20T15:43:59;3.70;99.90
8043;DHT22;4064;48.132;11.366;2023-12-20T15:46:25;3.70;99.90
8043;DHT22;4064;48.132;11.366;2023-12-20T15:48:51;3.60;99.90
8043;DHT22;4064;48.132;11.366;2023-12-20T15:51:21;3.50;99.90
8043;DHT22;4064;48.132;11.366;2023-12-20T15:53:47;3.40;99.90
8043;DHT22;4064;48.132;11.366;2023-12-20T15:56:13;3.40;99.90
8043;DHT22;4064;48.132;11.366;2023-12-20T15:58:38;3.30;99.90
8043;DHT22;4064;48.132;11.366;2023-12-20T16:01:04;3.20;99.90